Time;durP1;ratioP1;P1;durP2;ratioP2;P2;SDS_P1;SDS_P2;PMS_P1;PMS_P2;Temp;Humidity;BMP_temperature;BMP_pressure;BME280_temperature;BME280_humidity;BME280_pressure;Samples;Min_cycle;Max_cycle;Signal;HPM_P1;HPM_P2
2022/09/28 00:03:42;;;;;;;9.80;4.17;;;;;;;;;;10247865;27;20050;-67
2022/09/28 00:08:39;;;;;;;6.80;4.28;;;;;;;;;;10238327;27;20055;-67
2022/09/28 00:13:37;;;;;;;5.78;2.25;;;;;;;;;;10236822;27;20126;-67
2022/09/28 00:18:33;;;;;;;15.33;5.97;;;;;;;;;;10228606;28;20089;-62
2022/09/28 00:23:27;;;;;;;8.48;5.22;;;;;;;;;;10242085;27;20054;-61
2022/09/28 00:28:21;;;;;;;7.95;3.88;;;;;;;;;;10244553;27;20391;-61
2022/09/28 00:33:15;;;;;;;6.45;3.33;;;;;;;;;;10227897;28;20531;-62
2022/09/28 00:38:08;;;;;;;13.82;4.20;;;;;;;;;;10233036;27;20431;-62
2022/09/28 00:43:17;;;;;;;6.68;2.88;;;;;;;;;;10235363;27;20488;-61
2022/09/28 00:48:11;;;;;;;3.50;2.17;;;;;;;;;;10239825;27;20040;-62
2022/09/28 00:53:17;;;;;;;8.15;4.10;;;;;;;;;;10232450;27;20053;-62
2022/09/28 00:58:13;;;;;;;8.18;4.90;;;;;;;;;;10227520;27;20139;-61
2022/09/28 01:03:06;;;;;;;7.78;4.88;;;;;;;;;;10236917;27;20051;-62
2022/09/28 01:08:01;;;;;;;10.70;5.00;;;;;;;;;;10245413;27;20054;-62
2022/09/28 01:12:55;;;;;;;8.98;5.65;;;;;;;;;;10230505;28;20097;-62
2022/09/28 01:17:55;;;;;;;6.78;5.63;;;;;;;;;;10237906;27;20465;-61
2022/09/28 01:23:31;;;;;;;5.93;4.20;;;;;;;;;;10230913;27;20055;-61
2022/09/28 01:28:27;;;;;;;11.35;6.60;;;;;;;;;;10100610;28;20135;-61
2022/09/28 01:33:27;;;;;;;10.57;6.78;;;;;;;;;;10236942;27;20047;-61
2022/09/28 01:38:32;;;;;;;9.45;4.45;;;;;;;;;;10214060;28;20499;-61
2022/09/28 01:43:27;;;;;;;9.27;4.40;;;;;;;;;;10215802;27;20056;-62
2022/09/28 01:48:26;;;;;;;9.25;4.40;;;;;;;;;;10229994;27;20047;-62
2022/09/28 01:53:22;;;;;;;7.05;4.07;;;;;;;;;;10232927;27;20062;-62
2022/09/28 01:58:31;;;;;;;10.07;3.67;;;;;;;;;;10228973;28;20453;-62
2022/09/28 02:03:35;;;;;;;4.63;3.40;;;;;;;;;;10223200;28;20461;-62
2022/09/28 02:08:32;;;;;;;6.10;3.65;;;;;;;;;;10236900;28;20051;-61
2022/09/28 02:13:39;;;;;;;6.25;3.38;;;;;;;;;;10227138;28;20047;-61
2022/09/28 02:18:36;;;;;;;9.63;3.50;;;;;;;;;;10209916;28;20461;-61
2022/09/28 02:23:29;;;;;;;9.45;3.70;;;;;;;;;;10217432;28;20047;-61
2022/09/28 02:28:23;;;;;;;6.90;3.38;;;;;;;;;;10220753;28;20048;-61
2022/09/28 02:33:37;;;;;;;7.30;3.70;;;;;;;;;;10233645;28;20048;-62
2022/09/28 02:38:30;;;;;;;8.85;3.70;;;;;;;;;;10232145;28;20130;-61
2022/09/28 02:43:50;;;;;;;5.82;3.70;;;;;;;;;;10233152;28;20066;-61
2022/09/28 02:49:00;;;;;;;10.68;3.72;;;;;;;;;;10225641;27;20487;-61
2022/09/28 02:54:51;;;;;;;5.93;3.20;;;;;;;;;;10232885;27;20052;-61
2022/09/28 02:59:56;;;;;;;4.50;3.50;;;;;;;;;;10208182;27;20452;-61
2022/09/28 03:05:12;;;;;;;7.68;3.92;;;;;;;;;;10246135;27;20142;-61
2022/09/28 03:10:12;;;;;;;7.88;4.53;;;;;;;;;;10239939;27;20047;-61
2022/09/28 03:15:34;;;;;;;6.85;4.68;;;;;;;;;;10232454;27;20052;-61
2022/09/28 03:20:29;;;;;;;13.35;5.28;;;;;;;;;;10226392;28;20522;-61
2022/09/28 03:25:23;;;;;;;9.48;4.90;;;;;;;;;;10248882;27;20043;-61
2022/09/28 03:30:19;;;;;;;13.30;7.90;;;;;;;;;;10243884;27;20138;-61
2022/09/28 03:35:15;;;;;;;12.30;7.25;;;;;;;;;;10243688;27;20044;-61
2022/09/28 03:40:09;;;;;;;12.80;8.05;;;;;;;;;;10238261;27;20506;-61
2022/09/28 03:45:05;;;;;;;20.90;8.27;;;;;;;;;;10231084;28;20044;-63
2022/09/28 03:50:00;;;;;;;14.80;7.13;;;;;;;;;;10231149;28;20047;-63
2022/09/28 03:54:54;;;;;;;15.52;6.80;;;;;;;;;;10229749;28;20147;-62
2022/09/28 03:59:47;;;;;;;13.55;7.68;;;;;;;;;;10231508;27;20415;-62
2022/09/28 04:04:41;;;;;;;10.43;6.05;;;;;;;;;;10234696;27;20572;-63
2022/09/28 04:09:34;;;;;;;12.27;6.90;;;;;;;;;;10231402;27;20047;-61
2022/09/28 04:14:28;;;;;;;15.77;7.70;;;;;;;;;;10231078;27;20055;-61
2022/09/28 04:19:21;;;;;;;12.05;5.65;;;;;;;;;;10243305;27;20048;-60
2022/09/28 04:24:33;;;;;;;9.50;5.65;;;;;;;;;;10233136;27;20056;-61
2022/09/28 04:29:26;;;;;;;10.43;5.45;;;;;;;;;;10237998;27;20130;-61
2022/09/28 04:34:23;;;;;;;10.35;5.32;;;;;;;;;;10242395;27;20139;-62
2022/09/28 04:39:18;;;;;;;9.20;5.78;;;;;;;;;;10224943;27;20550;-62
2022/09/28 04:44:14;;;;;;;10.20;5.87;;;;;;;;;;10236863;27;20048;-63
2022/09/28 04:49:10;;;;;;;10.07;4.57;;;;;;;;;;10236843;27;20038;-62
2022/09/28 04:54:18;;;;;;;10.75;5.40;;;;;;;;;;10241776;27;20054;-62
2022/09/28 04:59:12;;;;;;;12.63;5.22;;;;;;;;;;10252076;27;20067;-63
2022/09/28 05:04:07;;;;;;;12.00;7.43;;;;;;;;;;10252087;27;20047;-65
2022/09/28 05:09:11;;;;;;;19.77;10.75;;;;;;;;;;10231728;27;20035;-63
2022/09/28 05:14:05;;;;;;;20.85;11.95;;;;;;;;;;10238401;27;20097;-64
2022/09/28 05:18:59;;;;;;;17.17;10.00;;;;;;;;;;10237288;27;20043;-66
2022/09/28 05:23:55;;;;;;;17.45;12.10;;;;;;;;;;10224788;27;20481;-64
2022/09/28 05:28:49;;;;;;;12.07;9.05;;;;;;;;;;10230534;27;20069;-61
2022/09/28 05:34:01;;;;;;;9.68;6.50;;;;;;;;;;10239333;27;20063;-61
2022/09/28 05:38:54;;;;;;;7.38;5.80;;;;;;;;;;10227807;27;20051;-61
2022/09/28 05:43:50;;;;;;;7.93;5.38;;;;;;;;;;10219924;27;20515;-61
2022/09/28 05:48:45;;;;;;;12.32;5.80;;;;;;;;;;10237964;27;20491;-63
2022/09/28 05:53:38;;;;;;;9.30;5.65;;;;;;;;;;10228403;27;20051;-62
2022/09/28 05:58:32;;;;;;;8.82;5.30;;;;;;;;;;10228933;28;20051;-62
2022/09/28 06:03:27;;;;;;;8.60;5.50;;;;;;;;;;10232139;28;20093;-62
2022/09/28 06:08:21;;;;;;;11.38;6.20;;;;;;;;;;10239025;28;20046;-62
2022/09/28 06:13:23;;;;;;;13.95;7.05;;;;;;;;;;10227485;28;20062;-61
2022/09/28 06:18:17;;;;;;;11.15;7.93;;;;;;;;;;10233383;27;20062;-61
2022/09/28 06:23:25;;;;;;;13.75;8.63;;;;;;;;;;10239866;27;20407;-60
2022/09/28 06:28:19;;;;;;;16.67;9.68;;;;;;;;;;10244108;27;20067;-61
2022/09/28 06:33:15;;;;;;;11.63;7.85;;;;;;;;;;10246906;27;20051;-61
2022/09/28 06:38:08;;;;;;;9.30;5.72;;;;;;;;;;10246721;27;20051;-60
2022/09/28 06:43:26;;;;;;;13.48;5.90;;;;;;;;;;10238353;27;20070;-60
2022/09/28 06:48:34;;;;;;;26.42;9.15;;;;;;;;;;10247799;27;20043;-60
2022/09/28 06:53:29;;;;;;;11.68;6.95;;;;;;;;;;10234061;27;20061;-60
2022/09/28 06:58:44;;;;;;;11.55;7.30;;;;;;;;;;10234089;27;20118;-61
2022/09/28 07:03:39;;;;;;;9.20;6.15;;;;;;;;;;10252041;27;20047;-61
2022/09/28 07:09:08;;;;;;;10.02;6.53;;;;;;;;;;10233645;27;20522;-61
2022/09/28 07:14:45;;;;;;;23.65;8.80;;;;;;;;;;10244384;27;20058;-61
2022/09/28 07:19:40;;;;;;;10.75;6.13;;;;;;;;;;10244769;27;20035;-61
2022/09/28 07:24:35;;;;;;;10.02;5.85;;;;;;;;;;10243281;27;20558;-61
2022/09/28 07:29:47;;;;;;;14.60;6.72;;;;;;;;;;10245916;27;20055;-60
2022/09/28 07:34:55;;;;;;;15.10;6.75;;;;;;;;;;10237357;27;20051;-60
2022/09/28 07:45:28;;;;;;;11.32;5.88;;;;;;;;;;10232550;27;20054;-61
2022/09/28 07:50:22;;;;;;;9.05;5.20;;;;;;;;;;10238131;27;20719;-60
2022/09/28 07:55:42;;;;;;;;;;;;;;;;;;10208613;27;20151;-60
2022/09/28 08:00:53;;;;;;;8.63;4.32;;;;;;;;;;10233603;27;20599;-60
2022/09/28 08:05:46;;;;;;;12.60;5.55;;;;;;;;;;10233042;27;20052;-61
2022/09/28 08:10:42;;;;;;;11.05;5.20;;;;;;;;;;10238070;27;20032;-60
2022/09/28 08:16:07;;;;;;;9.20;4.05;;;;;;;;;;10245398;27;20080;-64
2022/09/28 08:26:33;;;;;;;9.75;3.65;;;;;;;;;;10233659;27;20047;-62
2022/09/28 08:31:27;;;;;;;7.68;3.50;;;;;;;;;;10247856;27;20702;-65
2022/09/28 08:36:35;;;;;;;7.07;3.83;;;;;;;;;;10238650;27;20047;-60
2022/09/28 08:42:26;;;;;;;5.50;3.42;;;;;;;;;;10242119;27;20120;-60
2022/09/28 08:53:42;;;;;;;18.10;6.28;;;;;;;;;;10241662;27;20080;-65
2022/09/28 08:58:55;;;;;;;7.22;3.60;;;;;;;;;;10247305;27;20078;-64
2022/09/28 09:03:49;;;;;;;9.75;4.63;;;;;;;;;;10233071;27;20051;-65
2022/09/28 09:09:32;;;;;;;9.05;5.95;;;;;;;;;;10219783;27;20049;-65
2022/09/28 09:14:38;;;;;;;10.40;7.03;;;;;;;;;;10241237;27;20050;-64
2022/09/28 09:19:44;;;;;;;11.60;7.32;;;;;;;;;;10230292;27;20061;-64
2022/09/28 09:24:51;;;;;;;10.98;5.97;;;;;;;;;;10236794;27;20047;-63
2022/09/28 09:29:48;;;;;;;9.95;7.30;;;;;;;;;;10235353;27;20486;-63
2022/09/28 09:35:05;;;;;;;8.27;6.00;;;;;;;;;;10266416;27;20487;-63
2022/09/28 09:40:34;;;;;;;13.23;6.13;;;;;;;;;;10232083;27;20051;-63
2022/09/28 09:45:45;;;;;;;10.55;5.53;;;;;;;;;;10234713;27;20144;-62
2022/09/28 09:51:05;;;;;;;8.55;6.00;;;;;;;;;;10227478;27;20043;-62
2022/09/28 09:56:09;;;;;;;10.20;5.80;;;;;;;;;;10221138;27;20062;-62
2022/09/28 10:01:26;;;;;;;8.35;5.57;;;;;;;;;;10237121;28;20043;-62
2022/09/28 10:06:39;;;;;;;10.13;5.53;;;;;;;;;;10229110;28;20136;-61
2022/09/28 10:11:41;;;;;;;6.78;5.18;;;;;;;;;;10213115;28;20048;-62
2022/09/28 10:16:43;;;;;;;14.45;5.13;;;;;;;;;;10225846;28;20385;-62
2022/09/28 10:21:46;;;;;;;11.43;4.63;;;;;;;;;;10227675;28;20052;-62
2022/09/28 10:26:48;;;;;;;6.57;3.17;;;;;;;;;;10220601;28;20108;-62
2022/09/28 10:31:47;;;;;;;7.28;3.17;;;;;;;;;;10227296;28;20065;-62
2022/09/28 10:36:59;;;;;;;7.28;3.92;;;;;;;;;;10225218;28;20419;-61
2022/09/28 10:42:02;;;;;;;7.32;2.83;;;;;;;;;;10227820;28;20064;-62
2022/09/28 10:47:01;;;;;;;8.88;5.75;;;;;;;;;;10211630;28;20044;-61
2022/09/28 10:51:59;;;;;;;7.43;3.85;;;;;;;;;;10212501;28;20142;-62
2022/09/28 10:57:03;;;;;;;6.45;2.40;;;;;;;;;;10241353;28;20056;-62
2022/09/28 11:02:11;;;;;;;8.88;2.90;;;;;;;;;;10262338;27;20411;-62
2022/09/28 11:07:24;;;;;;;7.30;2.35;;;;;;;;;;10243699;27;20490;-62
2022/09/28 11:12:21;;;;;;;6.40;2.47;;;;;;;;;;10229392;27;20080;-62
2022/09/28 11:17:26;;;;;;;5.20;2.80;;;;;;;;;;10250079;27;20051;-62
2022/09/28 11:22:22;;;;;;;8.57;2.40;;;;;;;;;;10235444;27;20050;-62
2022/09/28 11:27:25;;;;;;;7.60;3.17;;;;;;;;;;10239155;27;20074;-63
2022/09/28 11:32:21;;;;;;;7.57;2.70;;;;;;;;;;10236148;27;20042;-62
2022/09/28 11:38:10;;;;;;;8.98;2.65;;;;;;;;;;10235965;27;20054;-62
2022/09/28 11:43:44;;;;;;;5.53;2.67;;;;;;;;;;10253242;27;20066;-62
2022/09/28 11:48:46;;;;;;;13.20;4.18;;;;;;;;;;10234224;27;20408;-63
2022/09/28 11:53:48;;;;;;;9.25;3.78;;;;;;;;;;10232951;27;20142;-63
2022/09/28 11:58:47;;;;;;;8.90;3.13;;;;;;;;;;10232528;27;20052;-62
2022/09/28 12:03:49;;;;;;;9.02;4.43;;;;;;;;;;10227362;27;20044;-63
2022/09/28 12:08:48;;;;;;;13.13;3.97;;;;;;;;;;10242029;27;20055;-62
2022/09/28 12:14:20;;;;;;;15.77;6.10;;;;;;;;;;10244720;27;20092;-62
2022/09/28 12:19:46;;;;;;;9.40;4.18;;;;;;;;;;10236021;27;20052;-62
2022/09/28 12:24:43;;;;;;;11.35;4.20;;;;;;;;;;10228871;27;20043;-63
2022/09/28 12:29:40;;;;;;;10.07;3.63;;;;;;;;;;10245955;27;20134;-62
2022/09/28 12:35:13;;;;;;;8.70;3.42;;;;;;;;;;10232145;27;20092;-61
2022/09/28 12:40:25;;;;;;;8.68;3.17;;;;;;;;;;10232690;27;20510;-60
2022/09/28 12:45:47;;;;;;;9.52;3.88;;;;;;;;;;10248553;27;20130;-60
2022/09/28 12:51:08;;;;;;;6.95;3.00;;;;;;;;;;10243675;27;20039;-60
2022/09/28 12:56:10;;;;;;;4.95;2.30;;;;;;;;;;10230156;27;20462;-60
2022/09/28 13:01:34;;;;;;;8.43;2.28;;;;;;;;;;10244873;27;20047;-61
2022/09/28 13:06:36;;;;;;;5.68;1.95;;;;;;;;;;10233063;27;20048;-61
2022/09/28 13:11:40;;;;;;;7.82;2.60;;;;;;;;;;10228244;27;20078;-62
2022/09/28 13:16:51;;;;;;;9.45;2.50;;;;;;;;;;10223628;27;20518;-61
2022/09/28 13:22:00;;;;;;;10.23;2.97;;;;;;;;;;10241631;27;20050;-61
2022/09/28 13:26:56;;;;;;;8.85;2.50;;;;;;;;;;10232667;27;20074;-61
2022/09/28 13:31:52;;;;;;;8.57;2.80;;;;;;;;;;10239366;27;20494;-61
2022/09/28 13:37:06;;;;;;;10.07;2.28;;;;;;;;;;10245400;27;20070;-60
2022/09/28 13:42:00;;;;;;;10.23;2.55;;;;;;;;;;10239896;27;20070;-61
2022/09/28 13:47:15;;;;;;;8.55;2.10;;;;;;;;;;10243243;27;20048;-61
2022/09/28 13:52:35;;;;;;;5.90;2.50;;;;;;;;;;10227586;28;20562;-61
2022/09/28 13:57:42;;;;;;;10.70;2.70;;;;;;;;;;10226097;28;20117;-61
2022/09/28 14:02:45;;;;;;;6.38;2.22;;;;;;;;;;10233378;28;20044;-61
2022/09/28 14:07:39;;;;;;;11.32;2.00;;;;;;;;;;10234277;28;20482;-60
2022/09/28 14:12:32;;;;;;;8.57;2.33;;;;;;;;;;10229360;28;20469;-61
2022/09/28 14:17:29;;;;;;;7.30;3.08;;;;;;;;;;10236431;27;20047;-60
2022/09/28 14:22:56;;;;;;;6.47;4.18;;;;;;;;;;10237392;28;20406;-60
2022/09/28 14:28:24;;;;;;;10.07;2.50;;;;;;;;;;10186863;28;20047;-61
2022/09/28 14:33:17;;;;;;;11.57;2.95;;;;;;;;;;10200547;28;20051;-61
2022/09/28 14:43:43;;;;;;;5.50;2.60;;;;;;;;;;10260184;27;20491;-61
2022/09/28 14:48:43;;;;;;;;;;;;;;;;;;10241767;27;20059;-61
2022/09/28 14:53:37;;;;;;;;;;;;;;;;;;10248204;27;19924;-61
2022/09/28 14:58:32;;;;;;;7.05;2.92;;;;;;;;;;10245076;27;19919;-60
2022/09/28 15:03:28;;;;;;;5.68;2.20;;;;;;;;;;10246652;27;20043;-61
2022/09/28 15:08:22;;;;;;;11.07;2.45;;;;;;;;;;10241264;27;20043;-61
2022/09/28 15:13:15;;;;;;;9.25;2.65;;;;;;;;;;10240201;27;20084;-62
2022/09/28 15:18:17;;;;;;;8.25;2.38;;;;;;;;;;10240453;27;20404;-61
2022/09/28 15:23:33;;;;;;;11.35;3.45;;;;;;;;;;10237854;27;20044;-62
2022/09/28 15:28:27;;;;;;;8.90;2.88;;;;;;;;;;10232756;27;20404;-64
2022/09/28 15:38:42;;;;;;;4.78;2.53;;;;;;;;;;10218212;28;20043;-66
2022/09/28 15:43:36;;;;;;;8.05;2.50;;;;;;;;;;10228871;27;20092;-65
2022/09/28 15:48:45;;;;;;;8.35;2.92;;;;;;;;;;10218692;28;20047;-64
2022/09/28 15:53:46;;;;;;;14.05;3.00;;;;;;;;;;10222329;28;20059;-62
2022/09/28 15:58:42;;;;;;;10.93;3.45;;;;;;;;;;10226486;28;20070;-63
2022/09/28 16:03:36;;;;;;;12.60;3.58;;;;;;;;;;10219857;28;20246;-63
2022/09/28 16:08:35;;;;;;;11.23;3.92;;;;;;;;;;10223531;28;20199;-63
2022/09/28 16:13:29;;;;;;;7.57;2.95;;;;;;;;;;10222188;27;20058;-63
2022/09/28 16:18:24;;;;;;;12.20;3.25;;;;;;;;;;10223937;28;20539;-63
2022/09/28 16:23:26;;;;;;;11.43;3.58;;;;;;;;;;10229860;28;20051;-63
2022/09/28 16:28:32;;;;;;;13.40;4.18;;;;;;;;;;10208379;27;20492;-63
2022/09/28 16:33:29;;;;;;;10.18;2.55;;;;;;;;;;10205963;28;20044;-63
2022/09/28 16:38:23;;;;;;;6.30;3.45;;;;;;;;;;10219706;28;20056;-63
2022/09/28 16:43:29;;;;;;;17.38;3.80;;;;;;;;;;10211008;28;20059;-62
2022/09/28 16:48:47;;;;;;;11.52;4.00;;;;;;;;;;10210276;28;20055;-63
2022/09/28 16:58:54;;;;;;;7.32;3.15;;;;;;;;;;10214745;28;20097;-63
2022/09/28 17:03:49;;;;;;;8.43;3.25;;;;;;;;;;10209661;28;20057;-62
2022/09/28 17:08:44;;;;;;;10.38;2.67;;;;;;;;;;10206752;28;20059;-63
2022/09/28 17:13:37;;;;;;;8.35;2.55;;;;;;;;;;10203782;28;20457;-63
2022/09/28 17:18:31;;;;;;;6.57;3.30;;;;;;;;;;10205541;28;20100;-63
2022/09/28 17:23:24;;;;;;;12.85;3.67;;;;;;;;;;10226880;28;20055;-63
2022/09/28 17:28:42;;;;;;;9.57;3.47;;;;;;;;;;10217185;28;20052;-62
2022/09/28 17:33:37;;;;;;;13.00;4.15;;;;;;;;;;10226801;28;20079;-63
2022/09/28 17:38:31;;;;;;;8.40;4.85;;;;;;;;;;10228325;28;20503;-63
2022/09/28 17:43:24;;;;;;;7.93;3.85;;;;;;;;;;10208079;28;20493;-63
2022/09/28 17:48:23;;;;;;;7.13;3.72;;;;;;;;;;10221494;28;20059;-63
2022/09/28 17:53:17;;;;;;;6.47;3.78;;;;;;;;;;10206630;28;20463;-63
2022/09/28 17:58:18;;;;;;;12.90;4.80;;;;;;;;;;10216608;28;20067;-63
2022/09/28 18:03:38;;;;;;;12.73;3.67;;;;;;;;;;10218680;28;20051;-63
2022/09/28 18:08:31;;;;;;;9.25;3.88;;;;;;;;;;10223439;28;20052;-63
2022/09/28 18:13:25;;;;;;;10.63;3.50;;;;;;;;;;10223562;28;20051;-62
2022/09/28 18:18:24;;;;;;;12.55;4.30;;;;;;;;;;10217737;28;20527;-63
2022/09/28 18:23:18;;;;;;;15.52;4.30;;;;;;;;;;10231299;28;20048;-63
2022/09/28 18:28:13;;;;;;;9.60;3.47;;;;;;;;;;10229827;28;20070;-63
2022/09/28 18:33:08;;;;;;;18.27;5.30;;;;;;;;;;10234481;28;20040;-64
2022/09/28 18:38:04;;;;;;;9.38;4.43;;;;;;;;;;10229585;28;20541;-63
2022/09/28 18:42:58;;;;;;;8.95;4.40;;;;;;;;;;10221800;27;20051;-61
2022/09/28 18:47:52;;;;;;;11.10;4.72;;;;;;;;;;10241900;27;20524;-61
2022/09/28 18:52:46;;;;;;;8.93;4.30;;;;;;;;;;10241250;27;20085;-63
2022/09/28 18:57:40;;;;;;;8.10;4.25;;;;;;;;;;10239189;27;20052;-63
2022/09/28 19:02:35;;;;;;;12.93;4.88;;;;;;;;;;10233110;27;20043;-63
2022/09/28 19:07:30;;;;;;;11.45;4.55;;;;;;;;;;10235200;27;20050;-62
2022/09/28 19:12:24;;;;;;;9.77;4.45;;;;;;;;;;10238670;27;20066;-62
2022/09/28 19:17:19;;;;;;;9.98;3.35;;;;;;;;;;10249110;27;20051;-62
2022/09/28 19:22:13;;;;;;;10.60;4.15;;;;;;;;;;10243394;27;20423;-62
2022/09/28 19:27:07;;;;;;;17.02;3.67;;;;;;;;;;10236980;27;20052;-62
2022/09/28 19:32:02;;;;;;;7.97;4.53;;;;;;;;;;10233562;27;20499;-62
2022/09/28 19:36:56;;;;;;;5.88;4.15;;;;;;;;;;10235099;27;20397;-62
2022/09/28 19:41:53;;;;;;;17.90;5.32;;;;;;;;;;10243850;27;20091;-62
2022/09/28 19:46:47;;;;;;;17.73;5.30;;;;;;;;;;10236628;27;20521;-62
2022/09/28 19:51:42;;;;;;;10.57;4.25;;;;;;;;;;10252197;27;20047;-62
2022/09/28 19:56:56;;;;;;;5.55;3.67;;;;;;;;;;10238784;27;20419;-62
2022/09/28 20:01:51;;;;;;;6.15;3.28;;;;;;;;;;10247959;27;20043;-62
2022/09/28 20:06:45;;;;;;;10.93;4.40;;;;;;;;;;10236604;27;20051;-62
2022/09/28 20:11:40;;;;;;;7.10;4.05;;;;;;;;;;10243351;27;20043;-62
2022/09/28 20:16:36;;;;;;;7.15;4.30;;;;;;;;;;10243306;27;20047;-62
2022/09/28 20:21:30;;;;;;;11.35;4.07;;;;;;;;;;10242790;27;20123;-62
2022/09/28 20:26:26;;;;;;;6.88;4.70;;;;;;;;;;10237743;27;20071;-62
2022/09/28 20:31:22;;;;;;;8.60;4.10;;;;;;;;;;10235387;27;20050;-63
2022/09/28 20:36:20;;;;;;;7.10;4.22;;;;;;;;;;10225734;27;20071;-62
2022/09/28 20:41:18;;;;;;;6.53;4.13;;;;;;;;;;10217982;28;20489;-60
2022/09/28 20:46:13;;;;;;;9.25;5.30;;;;;;;;;;10221613;28;20051;-61
2022/09/28 20:51:16;;;;;;;11.68;4.35;;;;;;;;;;10227202;28;20048;-62
2022/09/28 20:56:19;;;;;;;11.05;5.32;;;;;;;;;;10213964;28;20047;-63
2022/09/28 21:01:24;;;;;;;14.13;5.10;;;;;;;;;;10219907;28;20563;-62
2022/09/28 21:06:19;;;;;;;7.47;4.15;;;;;;;;;;10214865;28;20048;-63
2022/09/28 21:11:13;;;;;;;8.90;5.30;;;;;;;;;;10221033;28;20135;-61
2022/09/28 21:16:08;;;;;;;9.88;4.75;;;;;;;;;;10225565;27;20480;-62
2022/09/28 21:21:06;;;;;;;6.07;4.65;;;;;;;;;;10226853;28;20471;-61
2022/09/28 21:26:05;;;;;;;7.03;4.05;;;;;;;;;;10224846;27;20048;-61
2022/09/28 21:30:58;;;;;;;;;;;;;;;;;;10226949;28;20104;-61
2022/09/28 21:35:52;;;;;;;11.05;4.80;;;;;;;;;;10226258;27;19958;-62
2022/09/28 21:40:47;;;;;;;6.43;4.53;;;;;;;;;;10214587;28;20052;-62
2022/09/28 21:45:41;;;;;;;10.60;4.70;;;;;;;;;;10216969;28;20067;-62
2022/09/28 21:50:34;;;;;;;6.38;4.25;;;;;;;;;;10214089;28;20047;-62
2022/09/28 21:55:27;;;;;;;6.05;4.63;;;;;;;;;;10216667;28;20059;-62
2022/09/28 22:00:22;;;;;;;8.82;4.20;;;;;;;;;;10217903;28;20456;-62
2022/09/28 22:05:18;;;;;;;9.88;4.80;;;;;;;;;;10205024;28;20055;-62
2022/09/28 22:10:14;;;;;;;12.88;4.30;;;;;;;;;;10220053;28;20054;-62
2022/09/28 22:15:10;;;;;;;6.90;4.45;;;;;;;;;;10216926;28;20384;-62
2022/09/28 22:20:05;;;;;;;6.88;4.10;;;;;;;;;;10227803;28;20054;-62
2022/09/28 22:24:59;;;;;;;7.95;4.25;;;;;;;;;;10211340;28;20044;-62
2022/09/28 22:29:53;;;;;;;7.30;4.60;;;;;;;;;;10224259;28;20050;-61
2022/09/28 22:34:47;;;;;;;6.57;4.30;;;;;;;;;;10226979;28;20051;-62
2022/09/28 22:39:40;;;;;;;9.32;3.70;;;;;;;;;;10221766;28;20056;-62
2022/09/28 22:44:34;;;;;;;6.63;4.35;;;;;;;;;;10214394;28;20048;-62
2022/09/28 22:49:28;;;;;;;8.40;4.30;;;;;;;;;;10219064;28;20056;-62
2022/09/28 22:54:22;;;;;;;8.50;4.47;;;;;;;;;;10207934;28;20420;-62
2022/09/28 22:59:17;;;;;;;11.23;5.38;;;;;;;;;;10221156;28;20039;-62
2022/09/28 23:04:12;;;;;;;11.38;5.32;;;;;;;;;;10208506;28;20527;-62
2022/09/28 23:09:06;;;;;;;9.02;5.70;;;;;;;;;;10232006;28;20098;-62
2022/09/28 23:14:00;;;;;;;6.45;5.03;;;;;;;;;;10231322;28;20377;-62
2022/09/28 23:18:54;;;;;;;10.18;6.82;;;;;;;;;;10214485;28;20056;-62
2022/09/28 23:23:54;;;;;;;12.75;6.57;;;;;;;;;;10231420;28;20052;-61
2022/09/28 23:28:47;;;;;;;8.95;7.32;;;;;;;;;;10221060;28;20108;-61
2022/09/28 23:33:41;;;;;;;10.85;5.75;;;;;;;;;;10222711;28;20704;-61
2022/09/28 23:38:34;;;;;;;14.50;6.63;;;;;;;;;;10222831;28;20047;-62
2022/09/28 23:43:28;;;;;;;8.90;5.97;;;;;;;;;;10223941;28;20051;-62
2022/09/28 23:48:23;;;;;;;7.78;5.93;;;;;;;;;;10229177;28;20089;-62
2022/09/28 23:53:17;;;;;;;13.25;5.80;;;;;;;;;;10223522;28;20055;-62
2022/09/28 23:58:11;;;;;;;7.45;5.38;;;;;;;;;;10230109;28;20052;-62
